Time;durP1;ratioP1;P1;durP2;ratioP2;P2;SDS_P1;SDS_P2;PMS_P1;PMS_P2;Temp;Humidity;BMP_temperature;BMP_pressure;BME280_temperature;BME280_humidity;BME280_pressure;Samples;Min_cycle;Max_cycle;Signal;HPM_P1;HPM_P2
2023/06/25 00:01:00;;;;;;;16.73;9.00;;;;;;;24.88;63.26;100297.17;124338;1099;104412;-82
2023/06/25 00:03:52;;;;;;;17.53;8.50;;;;;;;24.87;63.37;100286.48;124232;1099;104290;-83
2023/06/25 00:06:23;;;;;;;20.33;9.40;;;;;;;24.87;63.58;100282.02;124120;1099;104220;-81
2023/06/25 00:08:54;;;;;;;18.60;10.03;;;;;;;24.87;63.98;100289.16;124043;1099;104246;-81
2023/06/25 00:11:25;;;;;;;16.10;8.53;;;;;;;24.84;63.84;100283.88;123787;1099;104383;-82
2023/06/25 00:13:57;;;;;;;18.83;9.57;;;;;;;24.79;63.70;100278.64;124041;1099;104341;-82
2023/06/25 00:16:29;;;;;;;19.47;9.73;;;;;;;24.78;64.36;100286.73;124025;1099;104197;-82
2023/06/25 00:19:00;;;;;;;19.90;9.93;;;;;;;24.78;64.39;100289.41;123740;1099;104242;-82
2023/06/25 00:21:32;;;;;;;20.87;9.53;;;;;;;24.74;64.26;100283.25;124004;1099;104229;-81
2023/06/25 00:24:03;;;;;;;18.80;9.30;;;;;;;24.67;64.56;100279.86;123784;1099;104271;-82
2023/06/25 00:26:45;;;;;;;20.13;9.60;;;;;;;24.62;64.82;100281.80;123961;1099;104264;-82
2023/06/25 00:29:16;;;;;;;20.37;9.53;;;;;;;24.63;65.14;100274.62;124024;1099;104332;-82
2023/06/25 00:31:47;;;;;;;18.60;9.73;;;;;;;24.60;64.86;100280.06;123809;1099;104258;-83
2023/06/25 00:34:20;;;;;;;19.40;9.20;;;;;;;24.56;65.16;100271.19;123985;1099;104753;-81
2023/06/25 00:36:52;;;;;;;18.87;9.37;;;;;;;24.51;65.76;100265.04;124045;1099;104268;-81
2023/06/25 00:39:24;;;;;;;18.93;9.40;;;;;;;24.47;65.65;100264.24;123808;1099;104239;-81
2023/06/25 00:41:58;;;;;;;18.40;9.60;;;;;;;24.45;65.39;100271.46;123804;1102;104242;-80
2023/06/25 00:44:29;;;;;;;21.05;10.00;;;;;;;24.39;65.92;100271.61;123918;1099;104354;-81
2023/06/25 00:47:01;;;;;;;20.73;10.17;;;;;;;24.32;66.37;100267.31;124073;1099;104268;-82
2023/06/25 00:49:33;;;;;;;19.20;10.23;;;;;;;24.29;66.28;100264.70;124003;1099;104264;-82
2023/06/25 00:52:08;;;;;;;19.87;9.83;;;;;;;24.26;66.19;100259.42;124108;1099;104239;-81
2023/06/25 00:54:44;;;;;;;20.33;10.33;;;;;;;24.20;66.54;100255.98;124054;1099;104248;-80
2023/06/25 00:57:16;;;;;;;20.73;10.30;;;;;;;24.14;66.82;100260.62;123865;1099;104313;-82
2023/06/25 00:59:48;;;;;;;21.70;11.17;;;;;;;24.11;66.99;100271.41;124018;1098;104220;-80
2023/06/25 01:02:26;;;;;;;22.30;10.87;;;;;;;24.04;67.36;100271.55;124177;1098;104319;-80
2023/06/25 01:05:04;;;;;;;21.20;10.30;;;;;;;24.00;67.47;100269.85;124135;1099;104412;-81
2023/06/25 01:07:38;;;;;;;22.53;11.10;;;;;;;23.94;67.91;100263.77;124123;1099;104320;-81
2023/06/25 01:10:09;;;;;;;;;;;;;;;23.85;67.01;100260.36;124198;1099;104228;-82
2023/06/25 01:12:42;;;;;;;22.87;10.57;;;;;;;23.83;67.50;100266.66;124118;1099;104235;-80
2023/06/25 01:15:14;;;;;;;18.40;9.40;;;;;;;23.74;67.83;100262.38;124055;1099;104371;-80
2023/06/25 01:17:48;;;;;;;19.95;9.50;;;;;;;23.68;68.37;100259.83;124163;1098;104237;-80
2023/06/25 01:20:21;;;;;;;19.20;9.30;;;;;;;23.58;68.63;100263.64;124261;1099;104351;-81
2023/06/25 01:22:53;;;;;;;20.23;9.20;;;;;;;23.48;69.39;100271.88;124070;1099;104373;-81
2023/06/25 01:25:25;;;;;;;19.05;9.30;;;;;;;23.39;69.63;100265.81;124014;1100;104331;-81
2023/06/25 01:27:56;;;;;;;18.70;9.23;;;;;;;23.33;69.55;100264.16;124246;1099;104313;-83
2023/06/25 01:30:31;;;;;;;17.20;8.80;;;;;;;23.27;69.33;100267.84;123813;1099;104408;-83
2023/06/25 01:33:03;;;;;;;18.60;8.90;;;;;;;23.21;69.49;100273.31;124155;1099;104290;-81
2023/06/25 01:35:34;;;;;;;20.05;7.85;;;;;;;23.11;70.17;100271.75;124100;1099;104223;-81
2023/06/25 01:38:05;;;;;;;19.17;7.90;;;;;;;23.01;69.87;100268.31;123936;1099;104242;-81
2023/06/25 01:40:36;;;;;;;19.87;8.30;;;;;;;22.95;69.77;100266.66;124091;1099;104245;-81
2023/06/25 01:43:08;;;;;;;17.43;7.53;;;;;;;22.92;69.89;100257.78;123946;1099;104415;-82
2023/06/25 01:45:39;;;;;;;16.80;8.10;;;;;;;22.91;69.96;100262.27;123942;1099;104242;-80
2023/06/25 01:48:11;;;;;;;16.93;7.83;;;;;;;22.92;69.79;100266.72;123946;1099;104274;-81
2023/06/25 01:50:42;;;;;;;16.20;8.10;;;;;;;22.98;70.02;100266.60;124287;1099;104261;-80
2023/06/25 01:53:14;;;;;;;16.23;8.03;;;;;;;22.97;69.82;100259.47;123875;1099;104324;-81
2023/06/25 01:55:45;;;;;;;14.57;7.03;;;;;;;22.96;70.25;100268.40;123909;1099;104683;-79
2023/06/25 01:58:16;;;;;;;14.30;7.40;;;;;;;22.87;70.41;100259.67;124141;1099;104191;-80
2023/06/25 02:00:48;;;;;;;13.73;7.10;;;;;;;22.78;70.31;100258.05;124017;1099;104254;-80
2023/06/25 02:03:20;;;;;;;14.40;7.47;;;;;;;22.74;69.98;100262.58;124457;1099;102198;-80
2023/06/25 02:05:51;;;;;;;15.73;7.53;;;;;;;22.68;70.07;100254.66;124042;1099;104258;-80
2023/06/25 02:08:23;;;;;;;15.60;7.50;;;;;;;22.66;70.83;100255.59;124367;1098;104616;-81
2023/06/25 02:10:54;;;;;;;14.20;7.50;;;;;;;22.63;70.84;100255.67;124189;1099;104226;-82
2023/06/25 02:13:25;;;;;;;13.93;7.10;;;;;;;22.62;70.79;100249.42;124156;1099;104286;-79
2023/06/25 02:15:56;;;;;;;16.77;8.10;;;;;;;22.59;70.83;100258.41;124136;1099;104268;-80
2023/06/25 02:18:28;;;;;;;15.40;7.73;;;;;;;22.56;71.05;100254.88;124048;1099;104281;-82
2023/06/25 02:20:59;;;;;;;16.40;8.60;;;;;;;22.51;71.64;100254.09;124132;1099;104393;-81
2023/06/25 02:23:31;;;;;;;16.53;7.83;;;;;;;22.43;71.82;100254.22;123976;1099;104325;-79
2023/06/25 02:26:02;;;;;;;17.80;7.97;;;;;;;22.39;71.12;100255.17;123985;1098;104194;-81
2023/06/25 02:28:33;;;;;;;16.47;7.60;;;;;;;22.40;71.92;100251.59;124111;1099;104216;-80
2023/06/25 02:31:04;;;;;;;17.37;7.93;;;;;;;22.42;71.30;100255.12;123909;1099;104306;-80
2023/06/25 02:33:36;;;;;;;17.30;8.30;;;;;;;22.47;71.83;100260.39;123973;1099;104226;-81
2023/06/25 02:36:07;;;;;;;16.27;8.17;;;;;;;22.50;71.53;100260.33;124183;1099;104245;-80
2023/06/25 02:38:39;;;;;;;14.90;8.33;;;;;;;22.50;71.97;100257.66;124128;1099;104261;-81
2023/06/25 02:41:10;;;;;;;15.13;7.70;;;;;;;22.48;72.83;100244.32;123807;1099;104325;-81
2023/06/25 02:43:41;;;;;;;13.70;7.90;;;;;;;22.48;72.02;100252.34;123820;1102;104361;-82
2023/06/25 02:46:12;;;;;;;17.10;8.43;;;;;;;22.46;72.29;100264.86;123816;1099;104309;-81
2023/06/25 02:48:44;;;;;;;17.70;8.70;;;;;;;22.41;72.72;100266.73;123912;1099;104182;-79
2023/06/25 02:51:15;;;;;;;17.20;8.40;;;;;;;22.35;73.51;100266.84;123928;1100;104242;-79
2023/06/25 02:53:47;;;;;;;16.40;8.13;;;;;;;22.32;73.68;100261.55;124091;1099;104239;-79
2023/06/25 02:56:18;;;;;;;15.80;8.33;;;;;;;22.28;73.23;100265.13;124158;1099;104390;-80
2023/06/25 02:58:49;;;;;;;17.97;8.40;;;;;;;22.26;73.87;100266.02;123847;1099;104427;-79
2023/06/25 03:01:21;;;;;;;16.25;8.90;;;;;;;22.29;74.92;100266.91;124204;1099;104275;-79
2023/06/25 03:03:52;;;;;;;17.23;8.57;;;;;;;22.25;74.14;100268.72;123971;1099;104239;-81
2023/06/25 03:06:23;;;;;;;20.50;9.53;;;;;;;22.23;74.23;100271.42;124236;1099;104320;-79
2023/06/25 03:08:55;;;;;;;17.20;9.20;;;;;;;22.25;74.20;100277.64;123858;1099;104645;-81
2023/06/25 03:11:26;;;;;;;18.00;8.67;;;;;;;22.33;76.32;100271.30;123898;1099;104271;-80
2023/06/25 03:13:57;;;;;;;17.87;9.60;;;;;;;22.36;75.83;100276.61;124097;1099;104271;-79
2023/06/25 03:16:28;;;;;;;19.13;9.10;;;;;;;22.39;75.50;100266.77;123722;1099;104245;-82
2023/06/25 03:19:01;;;;;;;19.80;9.63;;;;;;;22.45;75.31;100265.76;123903;1099;104287;-80
2023/06/25 03:21:32;;;;;;;16.87;9.27;;;;;;;22.50;77.26;100268.36;123935;1099;104325;-79
2023/06/25 03:24:04;;;;;;;17.70;9.57;;;;;;;22.51;77.00;100262.98;124203;1099;104404;-80
2023/06/25 03:26:35;;;;;;;18.07;9.63;;;;;;;22.53;76.52;100255.84;124160;1099;104334;-79
2023/06/25 03:29:07;;;;;;;17.93;9.93;;;;;;;22.58;77.34;100258.44;124214;1099;104290;-81
2023/06/25 03:31:38;;;;;;;18.13;9.53;;;;;;;22.58;76.67;100258.44;123922;1099;104384;-80
2023/06/25 03:34:10;;;;;;;18.77;10.17;;;;;;;22.58;77.04;100256.63;123954;1099;104355;-80
2023/06/25 03:36:41;;;;;;;17.60;9.50;;;;;;;22.60;76.57;100256.60;124209;1099;104323;-81
2023/06/25 03:39:13;;;;;;;16.83;9.67;;;;;;;22.66;77.12;100259.17;123929;1099;104255;-81
2023/06/25 03:41:45;;;;;;;17.77;9.83;;;;;;;22.69;77.65;100263.56;123770;1099;104297;-78
2023/06/25 03:44:17;;;;;;;17.83;9.97;;;;;;;22.70;77.02;100254.64;123844;1102;104404;-80
2023/06/25 03:46:48;;;;;;;17.23;9.77;;;;;;;22.73;77.93;100260.80;123924;1102;104229;-80
2023/06/25 03:49:20;;;;;;;20.07;10.03;;;;;;;22.71;77.14;100261.76;123759;1102;104322;-79
2023/06/25 03:51:51;;;;;;;19.10;9.83;;;;;;;22.67;76.60;100254.69;123809;1102;104337;-80
2023/06/25 03:54:22;;;;;;;17.60;10.60;;;;;;;22.68;77.17;100253.80;124082;1098;104201;-79
2023/06/25 03:56:54;;;;;;;18.90;10.00;;;;;;;22.72;77.30;100259.06;123765;1102;104325;-80
2023/06/25 03:59:25;;;;;;;19.50;10.40;;;;;;;22.80;77.39;100246.41;123813;1099;104322;-81
2023/06/25 04:01:56;;;;;;;21.10;10.23;;;;;;;22.83;77.51;100244.59;123766;1099;104406;-80
2023/06/25 04:04:28;;;;;;;18.10;10.30;;;;;;;22.83;77.27;100239.23;124199;1099;104188;-80
2023/06/25 04:06:59;;;;;;;20.63;10.73;;;;;;;22.84;77.70;100257.06;124031;1099;104274;-80
2023/06/25 04:09:30;;;;;;;19.03;10.27;;;;;;;22.84;77.64;100255.25;123913;1099;104194;-81
2023/06/25 04:12:02;;;;;;;17.67;10.43;;;;;;;22.86;78.32;100268.60;124229;1099;104342;-80
2023/06/25 04:14:34;;;;;;;20.60;10.57;;;;;;;22.86;77.79;100273.95;124092;1099;107909;-79
2023/06/25 04:17:06;;;;;;;18.10;10.13;;;;;;;22.83;78.19;100279.36;124083;1099;104344;-80
2023/06/25 04:19:38;;;;;;;18.35;10.50;;;;;;;22.82;78.06;100285.64;124216;1099;104874;-81
2023/06/25 04:22:09;;;;;;;21.40;10.33;;;;;;;22.83;77.99;100287.38;124175;1099;104213;-79
2023/06/25 04:24:41;;;;;;;18.43;10.13;;;;;;;22.86;78.17;100298.03;124139;1099;104277;-80
2023/06/25 04:27:12;;;;;;;20.30;9.77;;;;;;;22.86;77.83;100298.03;123751;1099;104389;-81
2023/06/25 04:29:45;;;;;;;17.93;9.73;;;;;;;22.86;78.08;100290.00;124067;1099;104271;-80
2023/06/25 04:32:17;;;;;;;18.73;10.17;;;;;;;22.92;78.03;100298.82;123941;1099;104315;-79
2023/06/25 04:34:48;;;;;;;18.50;10.43;;;;;;;23.01;78.04;100291.52;123949;1099;104264;-78
2023/06/25 04:37:20;;;;;;;;;;;;;;;23.01;78.38;100289.72;124075;1099;104239;-78
2023/06/25 04:39:52;;;;;;;18.63;10.17;;;;;;;23.05;78.05;100285.22;124194;1099;104459;-82
2023/06/25 04:42:24;;;;;;;19.05;10.10;;;;;;;23.09;78.26;100284.25;123916;1099;104321;-82
2023/06/25 04:44:56;;;;;;;18.03;9.90;;;;;;;23.13;78.22;100286.84;123839;1099;104281;-81
2023/06/25 04:47:27;;;;;;;18.70;10.00;;;;;;;23.19;78.33;100276.92;124198;1099;104275;-82
2023/06/25 04:49:59;;;;;;;17.27;10.60;;;;;;;23.27;78.21;100278.55;124110;1099;104230;-80
2023/06/25 04:52:30;;;;;;;18.60;10.40;;;;;;;23.35;78.22;100275.71;124155;1099;104379;-82
2023/06/25 04:55:02;;;;;;;18.15;10.00;;;;;;;23.42;78.08;100276.45;124131;1099;104422;-79
2023/06/25 04:57:34;;;;;;;21.00;10.63;;;;;;;23.48;77.80;100271.88;124210;1098;104312;-80
2023/06/25 05:00:06;;;;;;;19.37;9.87;;;;;;;23.60;77.61;100270.71;123943;1102;104344;-80
2023/06/25 05:02:38;;;;;;;21.68;10.15;;;;;;;23.67;77.31;100277.71;124094;1099;104239;-80
2023/06/25 05:05:10;;;;;;;18.47;10.47;;;;;;;23.68;77.17;100279.48;124107;1099;104488;-80
2023/06/25 05:07:41;;;;;;;18.47;10.60;;;;;;;23.64;77.04;100272.42;124117;1099;104322;-79
2023/06/25 05:10:16;;;;;;;17.50;9.67;;;;;;;23.59;76.84;100279.69;124311;1099;104235;-79
2023/06/25 05:12:47;;;;;;;19.13;10.53;;;;;;;23.55;76.90;100282.45;124102;1099;104373;-80
2023/06/25 05:15:19;;;;;;;17.90;9.87;;;;;;;23.55;77.16;100280.66;124509;1099;104437;-82
2023/06/25 05:17:50;;;;;;;18.80;9.95;;;;;;;23.61;76.81;100274.30;124343;1099;104264;-82
2023/06/25 05:20:21;;;;;;;17.20;9.87;;;;;;;23.63;76.72;100283.17;124004;1099;104227;-80
2023/06/25 05:22:52;;;;;;;17.40;9.43;;;;;;;23.65;76.82;100282.23;123890;1099;104334;-81
2023/06/25 05:25:24;;;;;;;18.23;10.67;;;;;;;23.60;76.74;100276.06;124289;1098;104245;-79
2023/06/25 05:27:55;;;;;;;19.03;9.97;;;;;;;23.54;76.65;100278.88;124252;1099;104389;-81
2023/06/25 05:30:26;;;;;;;17.77;10.17;;;;;;;23.48;76.92;100287.04;124171;1099;104348;-80
2023/06/25 05:32:58;;;;;;;19.57;10.63;;;;;;;23.47;76.79;100282.62;124148;1099;104296;-82
2023/06/25 05:35:29;;;;;;;20.67;10.50;;;;;;;23.49;76.70;100287.00;124311;1099;104201;-82
2023/06/25 05:38:01;;;;;;;17.83;9.93;;;;;;;23.55;76.50;100285.14;124125;1099;104255;-81
2023/06/25 05:40:32;;;;;;;18.20;9.50;;;;;;;23.56;76.44;100282.42;124288;1099;102210;-82
2023/06/25 05:43:03;;;;;;;17.43;10.07;;;;;;;23.56;76.44;100279.75;123908;1099;104874;-81
2023/06/25 05:45:34;;;;;;;18.50;9.87;;;;;;;23.58;76.54;100277.91;124058;1099;104283;-82
2023/06/25 05:48:06;;;;;;;18.20;9.93;;;;;;;23.65;76.49;100274.19;124316;1099;104174;-83
2023/06/25 05:50:38;;;;;;;16.80;9.33;;;;;;;23.72;76.09;100276.70;124379;1099;104249;-81
2023/06/25 05:53:09;;;;;;;17.93;9.83;;;;;;;23.77;76.13;100272.15;124479;1098;104357;-81
2023/06/25 05:55:40;;;;;;;16.00;8.87;;;;;;;23.83;76.07;100272.02;124600;1099;104160;-82
2023/06/25 05:58:11;;;;;;;16.87;10.10;;;;;;;23.88;76.08;100274.63;124549;1099;104261;-81
2023/06/25 06:00:43;;;;;;;18.87;9.83;;;;;;;23.95;75.82;100260.15;124534;1099;104214;-81
2023/06/25 06:03:14;;;;;;;18.00;9.87;;;;;;;24.01;75.53;100260.91;124259;1099;104274;-80
2023/06/25 06:05:45;;;;;;;17.40;10.33;;;;;;;24.05;75.38;100265.25;124274;1099;104315;-81
2023/06/25 06:08:16;;;;;;;17.50;9.87;;;;;;;24.09;75.18;100263.41;124139;1099;104703;-80
2023/06/25 06:10:48;;;;;;;15.67;9.73;;;;;;;24.13;75.35;100261.52;124113;1099;104257;-80
2023/06/25 06:13:20;;;;;;;19.03;10.23;;;;;;;24.13;75.02;100264.20;124282;1099;104307;-80
2023/06/25 06:15:51;;;;;;;17.47;9.60;;;;;;;24.14;75.11;100261.48;123918;1099;104239;-80
2023/06/25 06:18:22;;;;;;;18.90;9.90;;;;;;;24.14;74.87;100266.84;123982;1099;104281;-78
2023/06/25 06:20:53;;;;;;;21.40;10.43;;;;;;;24.11;74.79;100266.05;124022;1099;104326;-80
2023/06/25 06:23:26;;;;;;;19.07;10.13;;;;;;;24.09;74.33;100257.14;124189;1099;104345;-79
2023/06/25 06:25:58;;;;;;;19.90;10.87;;;;;;;24.08;74.69;100266.12;124096;1099;104300;-79
2023/06/25 06:28:29;;;;;;;18.00;10.20;;;;;;;24.06;74.50;100263.48;124357;1099;104281;-81
2023/06/25 06:31:00;;;;;;;19.17;10.33;;;;;;;24.08;74.51;100266.12;123947;1099;104223;-80
2023/06/25 06:33:32;;;;;;;19.80;10.73;;;;;;;24.09;74.40;100260.73;124144;1099;104456;-80
2023/06/25 06:36:03;;;;;;;21.45;10.45;;;;;;;24.14;74.35;100265.98;124205;1099;104216;-80
2023/06/25 06:38:34;;;;;;;18.37;10.27;;;;;;;24.24;74.31;100256.77;124195;1099;104277;-79
2023/06/25 06:41:05;;;;;;;19.70;10.50;;;;;;;24.38;74.26;100262.66;123982;1099;104219;-81
2023/06/25 06:43:37;;;;;;;19.37;10.83;;;;;;;24.52;73.65;100262.31;123758;1099;104274;-79
2023/06/25 06:46:08;;;;;;;18.80;10.47;;;;;;;24.59;73.81;100255.05;124038;1099;104370;-80
2023/06/25 06:48:39;;;;;;;22.07;10.83;;;;;;;24.67;73.75;100255.72;124165;1099;104217;-79
2023/06/25 06:51:10;;;;;;;20.97;11.13;;;;;;;24.72;73.01;100259.15;124128;1099;104272;-80
2023/06/25 06:53:42;;;;;;;20.10;10.87;;;;;;;24.76;73.17;100257.25;123906;1099;104271;-80
2023/06/25 06:56:13;;;;;;;20.60;11.00;;;;;;;24.77;72.55;100259.03;124056;1099;104407;-81
2023/06/25 06:58:44;;;;;;;20.70;10.60;;;;;;;24.80;72.64;100260.76;123977;1099;104744;-79
2023/06/25 07:01:16;;;;;;;20.67;10.53;;;;;;;24.83;72.35;100264.23;123767;1099;104271;-78
2023/06/25 07:03:49;;;;;;;19.63;11.13;;;;;;;24.90;72.28;100267.62;124148;1098;104277;-80
2023/06/25 07:06:21;;;;;;;19.20;10.50;;;;;;;24.96;72.12;100266.58;124284;1099;104781;-80
2023/06/25 07:08:55;;;;;;;21.30;10.87;;;;;;;25.08;71.98;100261.74;124332;1099;104220;-81
2023/06/25 07:11:27;;;;;;;17.93;10.03;;;;;;;25.21;71.76;100259.61;124135;1099;104347;-82
2023/06/25 07:13:58;;;;;;;19.97;10.40;;;;;;;25.32;71.55;100264.68;124058;1099;104366;-79
2023/06/25 07:16:30;;;;;;;19.30;10.80;;;;;;;25.34;71.33;100257.48;124014;1099;104344;-79
2023/06/25 07:19:01;;;;;;;18.53;10.27;;;;;;;25.47;71.12;100250.80;124177;1099;104252;-80
2023/06/25 07:21:32;;;;;;;17.40;10.00;;;;;;;25.59;70.98;100252.25;124071;1099;104245;-79
2023/06/25 07:24:04;;;;;;;20.07;10.73;;;;;;;25.72;70.33;100251.88;124074;1099;104258;-78
2023/06/25 07:26:35;;;;;;;20.50;10.37;;;;;;;25.80;70.11;100256.09;124020;1099;104248;-81
2023/06/25 07:29:06;;;;;;;21.90;11.15;;;;;;;25.99;69.45;100245.66;123933;1098;104256;-79
2023/06/25 07:31:37;;;;;;;20.43;10.47;;;;;;;26.17;69.18;100238.80;124036;1099;104383;-78
2023/06/25 07:34:08;;;;;;;18.43;9.90;;;;;;;26.42;68.57;100239.80;123991;1099;104274;-79
2023/06/25 07:36:40;;;;;;;17.17;9.67;;;;;;;26.64;68.06;100243.48;123867;1099;104530;-79
2023/06/25 07:39:21;;;;;;;17.47;9.57;;;;;;;26.75;67.22;100240.45;124156;1099;104287;-79
2023/06/25 07:41:52;;;;;;;19.13;10.20;;;;;;;26.90;66.99;100250.67;123816;1098;104242;-80
2023/06/25 07:44:24;;;;;;;19.13;10.30;;;;;;;27.08;66.31;100249.14;124072;1099;104271;-78
2023/06/25 07:46:55;;;;;;;18.37;9.07;;;;;;;27.28;66.56;100250.19;123769;1099;104457;-80
2023/06/25 07:49:27;;;;;;;20.50;10.40;;;;;;;27.51;65.06;100246.66;123931;1099;104351;-81
2023/06/25 07:51:58;;;;;;;20.03;9.97;;;;;;;27.83;64.76;100243.63;124024;1099;104341;-79
2023/06/25 07:54:29;;;;;;;17.90;9.33;;;;;;;28.03;63.83;100246.42;124077;1099;104325;-81
2023/06/25 07:57:00;;;;;;;17.93;9.03;;;;;;;28.23;62.67;100248.30;123880;1099;104334;-79
2023/06/25 07:59:32;;;;;;;17.40;9.13;;;;;;;28.43;61.30;100241.20;124190;1099;104731;-80
2023/06/25 08:02:03;;;;;;;19.23;9.33;;;;;;;28.60;61.46;100240.52;123734;1099;104354;-77
2023/06/25 08:04:35;;;;;;;16.50;8.97;;;;;;;28.76;60.40;100238.02;124215;1099;104245;-79
2023/06/25 08:07:07;;;;;;;15.63;8.50;;;;;;;28.94;60.17;100234.50;124138;1098;104268;-81
2023/06/25 08:09:38;;;;;;;19.20;9.00;;;;;;;29.03;59.03;100231.38;124076;1099;104254;-82
2023/06/25 08:12:11;;;;;;;16.73;8.60;;;;;;;29.05;58.56;100234.02;123839;1099;104204;-81
2023/06/25 08:14:42;;;;;;;17.73;9.28;;;;;;;29.10;58.04;100231.97;123767;1099;104473;-79
2023/06/25 08:17:13;;;;;;;15.27;8.23;;;;;;;29.26;57.16;100231.30;123720;1099;104344;-79
2023/06/25 08:19:45;;;;;;;15.57;8.27;;;;;;;29.34;56.95;100229.11;123980;1099;104238;-81
2023/06/25 08:22:16;;;;;;;14.03;7.80;;;;;;;29.30;56.49;100225.69;123812;1099;104299;-82
2023/06/25 08:24:47;;;;;;;17.23;8.00;;;;;;;29.38;56.30;100223.49;123907;1099;104294;-80
2023/06/25 08:27:18;;;;;;;13.30;7.67;;;;;;;29.40;54.81;100218.02;123844;1099;104230;-80
2023/06/25 08:29:50;;;;;;;14.57;8.10;;;;;;;29.37;54.07;100229.87;124166;1099;104252;-81
2023/06/25 08:32:21;;;;;;;14.93;7.60;;;;;;;29.39;53.97;100227.96;123967;1099;104341;-79
2023/06/25 08:34:52;;;;;;;14.30;7.93;;;;;;;29.43;53.98;100214.30;123830;1099;104236;-79
2023/06/25 08:37:23;;;;;;;12.97;7.13;;;;;;;29.53;53.53;100215.59;123934;1099;104315;-79
2023/06/25 08:39:55;;;;;;;13.03;7.27;;;;;;;29.62;52.87;100220.56;124012;1099;107957;-79
2023/06/25 08:42:26;;;;;;;11.90;7.33;;;;;;;29.68;52.50;100224.81;123994;1099;104245;-83
2023/06/25 08:44:58;;;;;;;13.65;7.60;;;;;;;29.71;52.40;100206.61;123869;1099;104303;-79
2023/06/25 08:47:38;;;;;;;12.80;7.00;;;;;;;29.84;52.81;100204.23;124262;1099;104245;-81
2023/06/25 08:50:11;;;;;;;13.13;7.20;;;;;;;29.84;50.97;100201.53;123849;1099;118589;-79
2023/06/25 08:52:42;;;;;;;12.40;7.50;;;;;;;29.82;50.62;100202.55;124241;1098;104268;-81
2023/06/25 08:55:14;;;;;;;13.10;7.73;;;;;;;29.75;50.89;100191.13;123960;1099;104258;-80
2023/06/25 08:57:45;;;;;;;14.67;7.93;;;;;;;29.79;50.49;100194.55;124091;1099;104325;-78
2023/06/25 09:00:18;;;;;;;15.13;8.00;;;;;;;29.82;50.36;100191.73;123967;1099;104283;-79
2023/06/25 09:02:49;;;;;;;15.87;7.53;;;;;;;29.81;49.90;100195.38;123905;1099;104331;-82
2023/06/25 09:05:26;;;;;;;13.65;7.85;;;;;;;29.83;49.94;100196.20;123932;1099;104248;-81
2023/06/25 09:07:57;;;;;;;12.60;7.73;;;;;;;29.97;49.80;100200.92;124152;1099;104223;-82
2023/06/25 09:10:31;;;;;;;13.10;7.70;;;;;;;30.00;47.85;100201.64;124076;1099;104390;-81
2023/06/25 09:13:04;;;;;;;12.80;6.87;;;;;;;29.93;48.11;100187.55;124143;1098;104222;-81
2023/06/25 09:15:35;;;;;;;12.50;7.22;;;;;;;29.86;48.10;100190.64;123920;1099;104274;-81
2023/06/25 09:18:06;;;;;;;12.70;7.27;;;;;;;29.73;48.01;100188.50;123947;1099;104402;-81
2023/06/25 09:20:39;;;;;;;12.37;6.90;;;;;;;29.57;46.83;100199.16;123955;1098;104233;-81
2023/06/25 09:23:10;;;;;;;14.18;8.28;;;;;;;29.44;47.08;100198.02;123932;1099;104346;-81
2023/06/25 09:25:41;;;;;;;12.60;7.40;;;;;;;29.56;47.93;100189.32;124140;1099;104361;-81
2023/06/25 09:28:13;;;;;;;14.87;7.37;;;;;;;29.74;47.30;100179.42;124063;1099;104340;-81
2023/06/25 09:30:44;;;;;;;10.93;6.73;;;;;;;29.93;47.17;100182.14;124017;1098;104281;-80
2023/06/25 09:33:16;;;;;;;14.60;7.57;;;;;;;30.02;46.40;100174.52;124017;1099;104389;-81
2023/06/25 09:35:48;;;;;;;12.40;7.00;;;;;;;30.12;46.54;100181.19;124343;1099;104239;-82
2023/06/25 09:38:19;;;;;;;13.87;7.67;;;;;;;30.18;46.45;100170.05;124024;1099;104321;-82
2023/06/25 09:40:51;;;;;;;12.17;6.87;;;;;;;30.03;45.86;100178.95;124018;1099;105575;-83
2023/06/25 09:43:23;;;;;;;12.77;7.13;;;;;;;29.87;44.97;100182.45;123942;1099;104339;-81
2023/06/25 09:45:56;;;;;;;13.47;7.03;;;;;;;29.73;44.80;100185.80;124223;1099;104360;-81
2023/06/25 09:48:27;;;;;;;11.68;7.08;;;;;;;29.62;44.26;100176.45;124134;1099;104697;-79
2023/06/25 09:50:59;;;;;;;12.27;6.93;;;;;;;29.61;44.46;100180.98;123949;1099;104332;-80
2023/06/25 09:53:35;;;;;;;11.53;6.83;;;;;;;29.68;44.80;100179.72;123928;1099;104296;-81
2023/06/25 09:56:09;;;;;;;12.33;6.77;;;;;;;29.79;44.83;100189.14;123819;1099;104537;-80
2023/06/25 09:58:40;;;;;;;11.17;6.53;;;;;;;29.73;44.77;100176.79;124176;1098;104274;-82
2023/06/25 10:01:12;;;;;;;13.47;7.40;;;;;;;29.84;44.67;100189.81;124029;1099;104386;-82
2023/06/25 10:03:43;;;;;;;11.73;6.93;;;;;;;30.03;44.93;100185.25;124049;1099;104249;-83
2023/06/25 10:06:15;;;;;;;13.83;7.30;;;;;;;30.04;44.95;100168.05;124217;1099;104242;-82
2023/06/25 10:08:48;;;;;;;13.53;7.27;;;;;;;30.01;45.03;100170.05;124156;1099;104693;-82
2023/06/25 10:11:19;;;;;;;13.47;7.00;;;;;;;29.97;45.33;100174.74;124101;1098;104353;-83
2023/06/25 10:13:52;;;;;;;12.37;7.20;;;;;;;29.81;45.38;100173.74;124042;1099;105893;-83
2023/06/25 10:16:23;;;;;;;13.20;7.70;;;;;;;29.69;45.66;100169.80;124006;1099;104252;-82
2023/06/25 10:18:57;;;;;;;11.77;7.00;;;;;;;29.64;45.79;100153.81;124084;1099;104349;-80
2023/06/25 10:21:28;;;;;;;14.87;6.83;;;;;;;29.75;45.95;100159.55;124093;1099;104312;-79
2023/06/25 10:24:01;;;;;;;10.80;7.00;;;;;;;29.85;45.72;100146.47;124014;1099;104240;-82
2023/06/25 10:26:35;;;;;;;11.88;6.95;;;;;;;29.87;45.88;100146.39;124028;1099;104400;-81
2023/06/25 10:29:10;;;;;;;11.93;7.10;;;;;;;30.01;46.48;100143.00;124171;1099;104200;-82
2023/06/25 10:31:43;;;;;;;11.57;6.63;;;;;;;30.03;45.89;100143.78;124107;1099;104306;-79
2023/06/25 10:34:15;;;;;;;12.17;6.80;;;;;;;30.17;45.86;100137.66;124066;1099;104465;-80
2023/06/25 10:36:53;;;;;;;13.13;6.80;;;;;;;30.26;45.76;100137.19;123846;1099;104241;-78
2023/06/25 10:39:24;;;;;;;14.07;6.83;;;;;;;30.26;45.44;100142.59;123847;1099;104271;-80
2023/06/25 10:41:55;;;;;;;13.10;6.95;;;;;;;30.20;45.35;100142.92;124016;1099;104188;-80
2023/06/25 10:44:30;;;;;;;13.13;6.80;;;;;;;30.10;45.14;100143.39;123939;1098;104283;-80
2023/06/25 10:47:10;;;;;;;13.30;6.97;;;;;;;30.08;45.00;100139.03;123869;1099;104389;-80
2023/06/25 10:49:41;;;;;;;12.50;6.60;;;;;;;30.13;45.02;100141.50;124094;1099;104242;-81
2023/06/25 10:52:12;;;;;;;11.67;7.00;;;;;;;30.21;45.17;100141.97;124148;1099;104265;-79
2023/06/25 10:54:43;;;;;;;11.37;6.70;;;;;;;30.29;44.85;100142.44;123877;1099;104289;-79
2023/06/25 10:57:16;;;;;;;13.13;7.13;;;;;;;30.34;44.70;100145.80;124118;1099;104344;-81
2023/06/25 10:59:49;;;;;;;11.15;6.65;;;;;;;30.24;44.25;100144.52;124053;1099;104232;-82
2023/06/25 11:02:22;;;;;;;17.05;7.25;;;;;;;30.22;44.62;100136.48;124088;1099;104341;-79
2023/06/25 11:04:52;;;;;;;;;;;;;;;30.15;43.81;100128.77;123877;1098;104402;-80
2023/06/25 11:07:25;;;;;;;11.40;6.83;;;;;;;30.15;44.01;100129.63;124058;1098;104315;-83
2023/06/25 11:09:58;;;;;;;13.93;6.75;;;;;;;30.09;44.14;100122.72;123921;1099;104322;-80
2023/06/25 11:12:30;;;;;;;11.90;7.00;;;;;;;30.13;44.34;100122.56;124069;1099;104393;-82
2023/06/25 11:15:02;;;;;;;12.03;6.57;;;;;;;30.11;44.22;100120.80;123998;1099;104271;-80
2023/06/25 11:17:33;;;;;;;11.77;6.50;;;;;;;30.07;44.07;100115.63;124024;1099;104217;-80
2023/06/25 11:20:05;;;;;;;10.57;6.40;;;;;;;30.13;44.22;100114.45;124071;1099;104239;-79